Terminal Aerodrome Forecast
Issued by NWS

Home | Current Version | Previous Version | Text Only | Print | Product List | Glossary On
Versions: 1 2 3 4 5 6 7 8 9 10 11 12 13 14 15 16 17 18 19 20 21 22 23 24 25 26 27 28
000
FTUS43 KDLH 301700
TAFHIB
TAF
KHIB 301720Z 3018/3118 03007KT P6SM OVC010
     FM301900 04006KT P6SM OVC015
     FM302300 VRB02KT P6SM SCT025 BKN035
     FM310700 VRB02KT 6SM BR OVC025
     FM311000 VRB02KT 2SM BR SCT002
     FM311300 14006KT 4SM BR OVC015=

USA.gov is the U.S. government's official web portal to all federal, state and local government web resources and services.